Time;durP1;ratioP1;P1;durP2;ratioP2;P2;SDS_P1;SDS_P2;PMS_P1;PMS_P2;Temp;Humidity;BMP_temperature;BMP_pressure;BME280_temperature;BME280_humidity;BME280_pressure;Samples;Min_cycle;Max_cycle;Signal;HPM_P1;HPM_P2
2023/03/27 00:00:44;;;;;;;5.70;2.90;;;5.90;99.90;;;;;;5004987;28;20029;-76
2023/03/27 00:03:12;;;;;;;7.45;3.50;;;5.90;99.90;;;;;;5007819;28;20030;-74
2023/03/27 00:05:39;;;;;;;9.95;3.92;;;5.90;99.90;;;;;;5007271;28;20320;-76
2023/03/27 00:08:10;;;;;;;6.68;4.00;;;5.80;99.90;;;;;;5004231;28;20821;-76
2023/03/27 00:10:37;;;;;;;9.30;4.05;;;5.60;91.90;;;;;;5009219;28;20054;-75
2023/03/27 00:13:05;;;;;;;7.60;3.28;;;5.40;56.10;;;;;;5008792;28;20231;-74
2023/03/27 00:15:33;;;;;;;11.55;4.00;;;5.30;46.20;;;;;;5002319;28;20078;-75
2023/03/27 00:18:03;;;;;;;12.52;4.95;;;5.20;62.30;;;;;;4988231;28;20038;-75
2023/03/27 00:20:36;;;;;;;7.18;4.25;;;5.20;36.70;;;;;;5010894;28;20046;-75
2023/03/27 00:23:03;;;;;;;8.27;4.05;;;5.10;53.90;;;;;;5004641;28;20069;-75
2023/03/27 00:25:30;;;;;;;11.02;5.97;;;5.00;39.70;;;;;;5007856;28;20045;-75
2023/03/27 00:27:59;;;;;;;9.15;5.57;;;5.00;75.60;;;;;;5000792;28;20049;-75
2023/03/27 00:30:28;;;;;;;15.35;4.97;;;5.00;49.10;;;;;;4987065;28;20483;-74
2023/03/27 00:32:55;;;;;;;9.27;4.35;;;5.00;55.50;;;;;;5008656;28;20475;-74
2023/03/27 00:35:23;;;;;;;9.88;4.60;;;5.00;34.40;;;;;;5015832;28;20379;-74
2023/03/27 00:37:49;;;;;;;12.82;5.28;;;5.00;1.00;;;;;;5004588;28;20038;-74
2023/03/27 00:40:19;;;;;;;10.60;5.15;;;5.00;22.10;;;;;;4974713;28;20054;-74
2023/03/27 00:42:47;;;;;;;12.50;5.38;;;4.90;5.20;;;;;;5002957;28;20030;-75
2023/03/27 00:45:21;;;;;;;9.68;4.80;;;5.00;10.90;;;;;;5005232;28;20038;-74
2023/03/27 00:47:55;;;;;;;18.00;5.47;;;5.00;18.70;;;;;;4989643;28;20053;-74
2023/03/27 00:50:33;;;;;;;15.05;5.18;;;5.00;1.00;;;;;;5005857;28;20030;-74
2023/03/27 00:53:04;;;;;;;15.95;5.13;;;4.90;11.90;;;;;;5010977;28;20045;-76
2023/03/27 00:55:34;;;;;;;12.00;6.22;;;4.90;6.70;;;;;;4988253;28;20049;-75
2023/03/27 00:58:06;;;;;;;14.57;5.63;;;4.90;1.00;;;;;;4985648;28;20041;-74
2023/03/27 01:00:33;;;;;;;17.58;5.60;;;4.90;1.00;;;;;;5006773;28;20486;-74
2023/03/27 01:03:03;;;;;;;15.00;5.45;;;4.90;1.00;;;;;;5009996;28;20026;-73
2023/03/27 01:05:32;;;;;;;14.68;7.47;;;4.90;1.00;;;;;;4988577;28;20431;-73
2023/03/27 01:07:58;;;;;;;9.57;3.85;;;4.90;1.00;;;;;;5004455;28;20037;-73
2023/03/27 01:10:51;;;;;;;15.93;4.75;;;4.90;1.00;;;;;;4985836;28;20050;-75
2023/03/27 01:13:34;;;;;;;8.73;4.18;;;5.00;1.00;;;;;;5002332;28;20459;-75
2023/03/27 01:16:16;;;;;;;17.00;4.50;;;4.90;1.00;;;;;;5003055;28;20045;-76
2023/03/27 01:18:54;;;;;;;15.00;3.72;;;4.90;1.00;;;;;;4984653;28;20073;-74
2023/03/27 01:21:53;;;;;;;15.80;6.38;;;4.90;1.00;;;;;;4989983;28;20050;-74
2023/03/27 01:25:02;;;;;;;14.73;4.13;;;4.90;1.00;;;;;;4990268;28;20052;-74
2023/03/27 01:27:57;;;;;;;19.95;3.83;;;5.00;1.00;;;;;;4987369;28;20054;-74
2023/03/27 01:30:32;;;;;;;17.70;4.88;;;5.00;1.00;;;;;;4992522;28;20045;-75
2023/03/27 01:33:20;;;;;;;10.90;3.30;;;5.10;1.00;;;;;;5003884;28;20038;-74
2023/03/27 01:36:38;;;;;;;11.18;3.08;;;5.10;1.00;;;;;;4986737;28;20042;-79
2023/03/27 01:39:35;;;;;;;10.02;3.42;;;5.10;1.00;;;;;;4898466;29;20457;-75
2023/03/27 01:42:08;;;;;;;13.02;2.97;;;5.10;1.00;;;;;;4913712;29;20050;-75
2023/03/27 01:44:50;;;;;;;13.20;2.35;;;5.00;1.00;;;;;;4916739;29;20062;-75
2023/03/27 01:47:35;;;;;;;14.20;3.03;;;4.90;1.00;;;;;;4911934;29;20063;-77
2023/03/27 01:50:28;;;;;;;7.88;2.22;;;4.90;1.00;;;;;;4891897;29;20523;-74
2023/03/27 01:53:00;;;;;;;7.25;2.17;;;4.90;1.00;;;;;;4897076;29;20044;-73
2023/03/27 01:55:35;;;;;;;8.63;2.60;;;4.90;1.00;;;;;;4915896;29;20040;-74
2023/03/27 01:58:06;;;;;;;11.52;2.10;;;4.80;1.00;;;;;;4894409;29;20052;-74
2023/03/27 02:00:35;;;;;;;12.75;2.38;;;4.80;1.00;;;;;;4912704;29;20051;-73
2023/03/27 02:03:25;;;;;;;9.90;1.67;;;4.70;1.00;;;;;;4906956;29;20051;-74
2023/03/27 02:05:59;;;;;;;4.90;1.77;;;4.60;1.00;;;;;;4898138;29;20044;-75
2023/03/27 02:08:36;;;;;;;5.43;1.45;;;4.50;1.00;;;;;;4912638;29;20055;-74
2023/03/27 02:11:15;;;;;;;11.00;1.55;;;4.40;1.00;;;;;;4986286;28;20046;-74
2023/03/27 02:13:50;;;;;;;7.50;2.08;;;4.40;1.00;;;;;;5001028;28;20043;-74
2023/03/27 02:16:21;;;;;;;7.00;1.63;;;4.30;1.00;;;;;;4989914;28;20045;-75
2023/03/27 02:18:58;;;;;;;7.75;1.90;;;4.20;1.00;;;;;;4998454;28;20053;-75
2023/03/27 02:21:24;;;;;;;14.60;1.73;;;4.20;1.00;;;;;;5005685;28;20029;-75
2023/03/27 02:23:51;;;;;;;8.35;1.65;;;4.10;1.00;;;;;;4991645;28;20038;-73
2023/03/27 02:26:18;;;;;;;8.32;1.85;;;4.00;1.00;;;;;;4987150;28;20053;-74
2023/03/27 02:29:12;;;;;;;5.35;1.27;;;4.00;1.00;;;;;;4978842;28;20038;-74
2023/03/27 02:31:51;;;;;;;7.10;1.90;;;3.90;1.00;;;;;;5005402;28;20053;-74
2023/03/27 02:34:33;;;;;;;12.98;1.23;;;3.90;1.00;;;;;;5006169;28;20046;-73
2023/03/27 02:37:15;;;;;;;9.85;3.47;;;3.80;1.00;;;;;;5022109;28;20042;-74
2023/03/27 02:40:09;;;;;;;11.00;1.92;;;3.80;1.00;;;;;;5000140;28;20042;-74
2023/03/27 02:43:01;;;;;;;7.60;1.48;;;3.70;1.00;;;;;;5005253;28;20046;-73
2023/03/27 02:45:39;;;;;;;5.47;1.30;;;3.70;99.90;;;;;;4997854;28;20049;-73
2023/03/27 02:48:18;;;;;;;7.35;1.23;;;3.60;99.90;;;;;;4999519;28;20050;-74
2023/03/27 02:50:55;;;;;;;8.32;0.95;;;3.50;99.90;;;;;;5004312;28;20435;-73
2023/03/27 02:53:24;;;;;;;9.90;1.20;;;3.30;99.90;;;;;;5006308;28;20038;-73
2023/03/27 02:55:56;;;;;;;6.80;1.00;;;3.30;99.90;;;;;;5006721;28;20041;-74
2023/03/27 02:58:50;;;;;;;11.10;1.33;;;3.20;99.90;;;;;;5003701;28;20041;-74
2023/03/27 03:01:36;;;;;;;5.32;1.00;;;3.10;99.90;;;;;;4978101;28;20042;-73
2023/03/27 03:04:17;;;;;;;8.23;1.17;;;3.10;99.90;;;;;;4999968;28;20057;-74
2023/03/27 03:07:03;;;;;;;4.57;0.95;;;3.00;99.90;;;;;;4990519;28;20506;-75
2023/03/27 03:09:30;;;;;;;;;;;3.00;99.90;;;;;;5002744;28;20061;-73
2023/03/27 03:11:56;;;;;;;7.55;1.17;;;3.00;99.90;;;;;;5002931;28;19913;-73
2023/03/27 03:14:30;;;;;;;8.00;1.70;;;2.90;99.90;;;;;;5000139;28;20046;-73
2023/03/27 03:16:56;;;;;;;8.80;0.90;;;2.90;99.90;;;;;;5002956;28;20034;-72
2023/03/27 03:19:26;;;;;;;5.70;0.70;;;2.90;99.90;;;;;;5005865;28;20040;-72
2023/03/27 03:21:52;;;;;;;7.15;1.15;;;2.90;99.90;;;;;;5002951;28;20057;-73
2023/03/27 03:24:21;;;;;;;5.55;0.90;;;2.80;99.90;;;;;;5006172;28;20030;-73
2023/03/27 03:26:51;;;;;;;6.53;1.17;;;2.80;99.90;;;;;;5008043;28;20490;-74
2023/03/27 03:29:18;;;;;;;6.80;1.15;;;2.80;99.90;;;;;;5018862;28;20077;-74
2023/03/27 03:31:59;;;;;;;;;;;2.70;1.00;;;;;;5004863;28;20042;-72
2023/03/27 03:34:26;;;;;;;5.88;1.40;;;2.70;99.90;;;;;;5002028;28;19913;-73
2023/03/27 03:36:53;;;;;;;9.35;0.95;;;2.70;1.00;;;;;;5022960;28;20042;-73
2023/03/27 03:39:23;;;;;;;5.22;1.10;;;2.60;1.00;;;;;;5003460;28;20045;-73
2023/03/27 03:41:50;;;;;;;5.85;1.20;;;2.60;1.00;;;;;;5000534;28;20042;-74
2023/03/27 03:44:16;;;;;;;9.75;1.40;;;2.60;1.00;;;;;;5004351;28;20038;-73
2023/03/27 03:46:45;;;;;;;8.70;1.33;;;2.50;1.00;;;;;;5003315;28;20072;-73
2023/03/27 03:49:11;;;;;;;5.05;1.33;;;2.50;1.00;;;;;;5003662;28;20046;-73
2023/03/27 03:51:38;;;;;;;9.77;1.63;;;2.50;1.00;;;;;;5005537;28;20038;-74
2023/03/27 03:54:05;;;;;;;5.07;1.23;;;2.60;99.90;;;;;;5002284;28;20499;-74
2023/03/27 03:56:33;;;;;;;7.55;1.10;;;2.50;99.90;;;;;;5001101;28;20057;-73
2023/03/27 03:58:59;;;;;;;8.40;1.38;;;2.60;99.90;;;;;;5006714;28;20053;-74
2023/03/27 04:01:26;;;;;;;3.25;0.90;;;2.50;99.90;;;;;;5008017;28;20041;-74
2023/03/27 04:03:57;;;;;;;8.63;1.98;;;2.50;1.00;;;;;;5009601;28;20053;-73
2023/03/27 04:06:29;;;;;;;6.20;1.30;;;2.40;99.90;;;;;;5004687;28;20051;-74
2023/03/27 04:08:58;;;;;;;3.00;0.95;;;2.40;99.90;;;;;;4998523;28;20039;-74
2023/03/27 04:11:37;;;;;;;4.13;1.23;;;2.40;1.00;;;;;;5005843;28;20380;-73
2023/03/27 04:14:38;;;;;;;3.05;0.98;;;2.40;1.00;;;;;;5003403;28;20053;-72
2023/03/27 04:17:14;;;;;;;7.53;1.48;;;2.40;1.00;;;;;;4999391;28;20046;-72
2023/03/27 04:19:40;;;;;;;7.57;1.23;;;2.30;1.00;;;;;;4999172;28;20039;-73
2023/03/27 04:22:07;;;;;;;4.00;1.05;;;2.30;1.00;;;;;;5002211;28;20050;-74
2023/03/27 04:24:36;;;;;;;4.70;0.80;;;2.20;1.00;;;;;;4983040;28;20061;-73
2023/03/27 04:27:02;;;;;;;6.50;1.27;;;2.20;1.00;;;;;;5005772;28;20344;-74
2023/03/27 04:29:41;;;;;;;11.10;1.30;;;2.20;1.00;;;;;;5003660;28;20395;-74
2023/03/27 04:32:28;;;;;;;7.13;0.82;;;2.20;1.00;;;;;;4975992;28;20479;-73
2023/03/27 04:35:32;;;;;;;10.82;1.45;;;2.10;1.00;;;;;;4995629;28;20498;-75
2023/03/27 04:38:20;;;;;;;5.40;1.42;;;2.10;1.00;;;;;;4998926;28;20046;-74
2023/03/27 04:40:51;;;;;;;6.93;1.23;;;2.00;1.00;;;;;;5016997;28;20041;-73
2023/03/27 04:43:18;;;;;;;3.67;1.20;;;2.10;1.00;;;;;;5009104;28;20057;-74
2023/03/27 04:45:46;;;;;;;7.22;1.90;;;2.10;1.00;;;;;;5007887;28;20475;-74
2023/03/27 04:48:14;;;;;;;6.30;1.63;;;2.10;1.00;;;;;;4995863;28;20049;-73
2023/03/27 04:50:48;;;;;;;6.78;2.15;;;2.10;1.00;;;;;;5004456;28;20042;-74
2023/03/27 04:53:19;;;;;;;4.57;1.08;;;2.00;1.00;;;;;;4990354;28;20039;-73
2023/03/27 04:55:49;;;;;;;4.65;1.15;;;2.10;1.00;;;;;;5020752;28;20514;-73
2023/03/27 04:58:17;;;;;;;8.18;1.08;;;2.00;1.00;;;;;;5000719;28;20417;-74
2023/03/27 05:00:49;;;;;;;7.55;1.38;;;2.00;1.00;;;;;;5008103;28;20395;-73
2023/03/27 05:03:35;;;;;;;;;;;2.00;1.00;;;;;;5008520;28;20046;-73
2023/03/27 05:06:08;;;;;;;9.95;1.30;;;1.90;1.00;;;;;;5005582;28;19924;-73
2023/03/27 05:08:36;;;;;;;9.05;1.67;;;1.90;1.00;;;;;;5004417;28;20045;-74
2023/03/27 05:11:02;;;;;;;9.50;1.15;;;1.90;1.00;;;;;;5019122;28;20061;-72
2023/03/27 05:13:39;;;;;;;10.07;0.93;;;1.90;1.00;;;;;;5003695;28;20041;-72
2023/03/27 05:16:08;;;;;;;12.50;2.50;;;1.90;1.00;;;;;;5006627;28;20046;-73
2023/03/27 05:18:40;;;;;;;4.57;1.02;;;1.90;1.00;;;;;;5005477;28;20038;-72
2023/03/27 05:21:07;;;;;;;9.10;1.20;;;1.80;1.00;;;;;;5010381;28;20057;-72
2023/03/27 05:23:33;;;;;;;4.60;0.88;;;1.80;1.00;;;;;;5003443;28;20049;-72
2023/03/27 05:26:01;;;;;;;5.95;1.10;;;1.90;1.00;;;;;;5004311;28;20399;-73
2023/03/27 05:28:44;;;;;;;7.80;2.30;;;1.90;1.00;;;;;;4996508;28;20109;-73
2023/03/27 05:31:11;;;;;;;9.32;1.17;;;1.90;1.00;;;;;;4984755;28;20395;-75
2023/03/27 05:33:51;;;;;;;5.82;1.33;;;1.90;1.00;;;;;;5005109;28;20046;-75
2023/03/27 05:36:20;;;;;;;2.53;0.75;;;1.90;1.00;;;;;;5002206;28;20121;-74
2023/03/27 05:38:47;;;;;;;11.57;1.50;;;1.90;1.00;;;;;;5023221;28;20045;-75
2023/03/27 05:41:24;;;;;;;14.48;1.73;;;1.90;1.00;;;;;;5011362;28;20468;-74
2023/03/27 05:43:50;;;;;;;9.05;2.80;;;1.80;1.00;;;;;;5002508;28;20052;-75
2023/03/27 05:46:17;;;;;;;8.05;1.42;;;1.90;1.00;;;;;;5003102;28;20076;-74
2023/03/27 05:48:49;;;;;;;7.43;1.73;;;2.00;1.00;;;;;;5003834;28;20049;-74
2023/03/27 05:51:18;;;;;;;5.60;1.42;;;2.00;1.00;;;;;;5006736;28;20061;-74
2023/03/27 05:53:44;;;;;;;9.88;1.75;;;2.00;1.00;;;;;;5016048;28;20045;-75
2023/03/27 05:56:23;;;;;;;8.45;1.38;;;2.20;1.00;;;;;;4998718;28;20053;-73
2023/03/27 05:59:01;;;;;;;5.07;2.47;;;2.80;1.00;;;;;;5018328;28;20050;-74
2023/03/27 06:01:29;;;;;;;11.95;2.20;;;3.10;99.90;;;;;;5005221;28;20137;-74
2023/03/27 06:03:57;;;;;;;5.95;1.30;;;3.30;99.90;;;;;;5003012;28;20044;-74
2023/03/27 06:06:28;;;;;;;4.65;1.63;;;3.10;99.90;;;;;;4999508;28;20049;-74
2023/03/27 06:08:58;;;;;;;11.50;1.88;;;2.90;99.90;;;;;;4999181;28;20398;-74
2023/03/27 06:11:26;;;;;;;4.40;1.35;;;2.70;99.90;;;;;;4997257;28;20049;-74
2023/03/27 06:13:53;;;;;;;10.57;1.65;;;3.20;99.90;;;;;;5007076;28;20032;-73
2023/03/27 06:16:25;;;;;;;6.55;1.30;;;3.60;99.90;;;;;;4994843;28;20045;-73
2023/03/27 06:19:10;;;;;;;6.70;1.40;;;3.90;99.90;;;;;;5000763;28;20029;-74
2023/03/27 06:21:45;;;;;;;4.57;1.58;;;4.10;99.90;;;;;;5004908;28;20045;-74
2023/03/27 06:24:11;;;;;;;5.40;1.48;;;5.00;99.90;;;;;;5000628;28;20038;-74
2023/03/27 06:26:39;;;;;;;5.68;1.27;;;4.70;99.90;;;;;;5007667;28;20049;-78
2023/03/27 06:29:06;;;;;;;9.82;1.73;;;4.80;99.90;;;;;;4999930;28;20058;-75
2023/03/27 06:31:34;;;;;;;6.60;3.45;;;5.30;99.90;;;;;;5002766;28;20049;-74
2023/03/27 06:34:08;;;;;;;8.82;1.60;;;5.80;99.90;;;;;;5001886;28;20034;-76
2023/03/27 06:36:45;;;;;;;5.50;1.38;;;5.80;99.90;;;;;;5000094;28;20068;-78
2023/03/27 06:39:12;;;;;;;4.15;0.82;;;5.00;99.90;;;;;;5001027;28;20496;-75
2023/03/27 06:41:46;;;;;;;5.47;1.50;;;4.50;99.90;;;;;;4996656;28;20061;-74
2023/03/27 06:44:35;;;;;;;4.35;1.48;;;4.20;99.90;;;;;;4999559;28;20042;-75
2023/03/27 06:47:11;;;;;;;13.63;2.70;;;4.00;99.90;;;;;;5007824;28;20052;-75
2023/03/27 06:49:56;;;;;;;9.77;3.00;;;4.00;99.90;;;;;;5003169;28;20052;-74
2023/03/27 06:52:23;;;;;;;6.93;1.30;;;4.20;99.90;;;;;;5006590;28;20053;-74
2023/03/27 06:54:50;;;;;;;9.80;2.08;;;4.10;99.90;;;;;;5002147;28;20498;-74
2023/03/27 06:57:17;;;;;;;8.23;1.40;;;4.40;99.90;;;;;;5003322;28;20411;-75
2023/03/27 06:59:53;;;;;;;11.90;2.28;;;4.90;99.90;;;;;;4993837;28;20038;-74
2023/03/27 07:02:23;;;;;;;10.10;2.13;;;5.20;99.90;;;;;;5001133;28;20038;-74
2023/03/27 07:05:08;;;;;;;6.00;1.85;;;5.20;99.90;;;;;;4998837;28;20399;-73
2023/03/27 07:07:40;;;;;;;7.40;2.70;;;5.10;99.90;;;;;;5015966;28;20042;-75
2023/03/27 07:10:08;;;;;;;12.40;2.25;;;5.20;99.90;;;;;;4998522;28;20057;-77
2023/03/27 07:12:35;;;;;;;10.13;3.78;;;5.80;99.90;;;;;;5005833;28;20038;-75
2023/03/27 07:15:04;;;;;;;5.22;1.92;;;6.20;99.90;;;;;;5006931;28;20138;-74
2023/03/27 07:17:32;;;;;;;9.50;2.90;;;5.80;99.90;;;;;;5008734;28;20045;-74
2023/03/27 07:20:00;;;;;;;6.32;1.30;;;5.80;99.90;;;;;;4999008;28;20065;-74
2023/03/27 07:22:30;;;;;;;5.43;1.45;;;5.90;99.90;;;;;;5004924;28;20403;-73
2023/03/27 07:25:03;;;;;;;10.10;3.45;;;5.50;99.90;;;;;;4997344;28;20499;-76
2023/03/27 07:27:38;;;;;;;8.40;1.92;;;5.60;99.90;;;;;;5001685;28;20246;-73
2023/03/27 07:30:06;;;;;;;4.80;1.40;;;5.50;99.90;;;;;;4985281;28;20378;-75
2023/03/27 07:32:34;;;;;;;6.50;1.52;;;5.80;99.90;;;;;;4985146;28;20045;-74
2023/03/27 07:35:04;;;;;;;9.07;1.77;;;6.20;99.90;;;;;;4990017;28;20411;-75
2023/03/27 07:37:56;;;;;;;5.78;1.40;;;5.80;99.90;;;;;;5010070;28;20137;-76
2023/03/27 07:40:42;;;;;;;7.68;1.85;;;5.70;99.90;;;;;;4999062;28;20061;-75
2023/03/27 07:43:44;;;;;;;9.80;2.13;;;6.00;99.90;;;;;;4979329;28;20563;-73
2023/03/27 07:46:10;;;;;;;10.88;1.95;;;6.60;99.90;;;;;;4981359;28;20042;-73
2023/03/27 07:48:37;;;;;;;7.15;1.55;;;6.10;99.90;;;;;;5014365;28;20049;-73
2023/03/27 07:51:04;;;;;;;8.15;1.60;;;5.90;99.90;;;;;;5009093;28;20049;-73
2023/03/27 07:53:34;;;;;;;7.75;1.77;;;6.10;99.90;;;;;;5011245;28;20045;-72
2023/03/27 07:56:07;;;;;;;5.03;1.20;;;6.30;99.90;;;;;;5012971;28;20454;-74
2023/03/27 07:58:34;;;;;;;9.50;1.88;;;6.40;99.90;;;;;;5015898;28;20042;-72
2023/03/27 08:01:01;;;;;;;6.63;1.75;;;6.70;99.90;;;;;;4972976;28;20046;-73
2023/03/27 08:03:30;;;;;;;7.28;1.40;;;6.50;99.90;;;;;;4999681;28;20045;-73
2023/03/27 08:05:58;;;;;;;6.70;2.65;;;6.20;99.90;;;;;;4973364;28;20048;-73
2023/03/27 08:08:27;;;;;;;11.27;1.38;;;6.70;99.90;;;;;;4986182;28;20371;-73
2023/03/27 08:11:02;;;;;;;8.85;2.05;;;6.80;99.90;;;;;;4989370;28;20045;-74
2023/03/27 08:13:33;;;;;;;12.52;1.85;;;6.70;99.90;;;;;;4989310;28;20471;-74
2023/03/27 08:16:04;;;;;;;8.40;1.40;;;6.70;99.90;;;;;;4991043;28;20126;-74
2023/03/27 08:18:33;;;;;;;9.00;1.73;;;6.50;99.90;;;;;;5004084;28;20042;-72
2023/03/27 08:21:02;;;;;;;9.68;1.45;;;6.50;99.90;;;;;;4998398;28;20042;-73
2023/03/27 08:23:30;;;;;;;5.97;1.70;;;6.60;99.90;;;;;;5010703;28;20042;-72
2023/03/27 08:26:15;;;;;;;11.65;3.33;;;6.60;99.90;;;;;;5007391;28;20042;-72
2023/03/27 08:28:52;;;;;;;6.28;2.08;;;7.10;99.90;;;;;;4989131;28;20426;-72
2023/03/27 08:31:20;;;;;;;5.90;1.40;;;7.00;99.90;;;;;;5020454;28;20058;-71
2023/03/27 08:33:47;;;;;;;8.65;1.42;;;6.90;99.90;;;;;;5006081;28;20505;-72
2023/03/27 08:36:21;;;;;;;5.00;1.13;;;8.00;99.90;;;;;;5000462;28;20050;-72
2023/03/27 08:38:50;;;;;;;3.33;1.13;;;8.10;99.90;;;;;;5003090;28;20046;-71
2023/03/27 08:41:37;;;;;;;7.60;1.67;;;7.00;99.90;;;;;;5005013;28;20051;-71
2023/03/27 08:44:18;;;;;;;6.63;1.75;;;6.50;99.90;;;;;;5021492;28;20049;-71
2023/03/27 08:47:03;;;;;;;7.70;1.35;;;6.10;99.90;;;;;;5005298;28;20407;-72
2023/03/27 08:49:41;;;;;;;9.88;1.30;;;6.70;99.90;;;;;;4999774;28;20043;-71
2023/03/27 08:52:23;;;;;;;3.72;1.48;;;7.70;99.90;;;;;;4992927;28;20042;-71
2023/03/27 08:55:00;;;;;;;7.22;1.27;;;6.80;99.90;;;;;;5010972;28;20365;-72
2023/03/27 08:57:40;;;;;;;8.45;2.15;;;6.20;99.90;;;;;;4999244;28;20050;-72
2023/03/27 09:00:21;;;;;;;8.63;1.50;;;6.10;99.90;;;;;;5006931;28;20038;-72
2023/03/27 09:03:14;;;;;;;5.82;1.20;;;6.70;99.90;;;;;;5017933;28;20042;-73
2023/03/27 09:05:51;;;;;;;3.40;1.25;;;6.90;99.90;;;;;;4991466;28;20057;-73
2023/03/27 09:08:25;;;;;;;6.10;1.17;;;7.30;99.90;;;;;;5004042;28;20033;-73
2023/03/27 09:11:09;;;;;;;6.65;1.48;;;7.80;99.90;;;;;;5015032;28;20050;-72
2023/03/27 09:13:49;;;;;;;4.15;0.90;;;7.70;99.90;;;;;;5008045;28;20042;-73
2023/03/27 09:16:29;;;;;;;8.10;1.50;;;7.10;99.90;;;;;;5007636;28;20073;-72
2023/03/27 09:19:14;;;;;;;6.93;1.40;;;6.50;99.90;;;;;;5008714;28;20056;-72
2023/03/27 09:21:56;;;;;;;8.85;1.58;;;6.30;99.90;;;;;;5010229;28;20042;-72
2023/03/27 09:24:43;;;;;;;4.95;1.27;;;6.00;99.90;;;;;;5007790;28;20497;-73
2023/03/27 09:27:20;;;;;;;13.13;1.50;;;6.60;99.90;;;;;;5005311;28;20045;-72
2023/03/27 09:30:27;;;;;;;2.65;0.90;;;7.80;99.90;;;;;;4966205;28;20061;-72
2023/03/27 09:33:04;;;;;;;8.30;1.38;;;7.30;99.90;;;;;;4966225;28;20038;-72
2023/03/27 09:35:34;;;;;;;7.53;1.20;;;6.90;99.90;;;;;;4973847;28;20054;-72
2023/03/27 09:38:05;;;;;;;5.25;1.15;;;6.60;99.90;;;;;;4980843;28;20340;-72
2023/03/27 09:40:58;;;;;;;3.75;0.90;;;6.60;99.90;;;;;;4971026;28;20046;-72
2023/03/27 09:43:34;;;;;;;6.43;0.98;;;6.20;99.90;;;;;;4983969;28;20051;-75
2023/03/27 09:46:02;;;;;;;10.55;1.25;;;6.50;99.90;;;;;;4971027;28;20061;-73
2023/03/27 09:48:50;;;;;;;13.90;3.80;;;6.70;99.90;;;;;;4965286;28;20043;-73
2023/03/27 09:51:39;;;;;;;3.55;1.10;;;6.70;99.90;;;;;;4979041;28;20039;-73
2023/03/27 09:54:13;;;;;;;5.22;1.00;;;6.80;99.90;;;;;;4987180;28;20039;-74
2023/03/27 09:56:41;;;;;;;8.90;1.05;;;6.60;99.90;;;;;;4972602;28;20103;-74
2023/03/27 09:59:19;;;;;;;9.23;2.17;;;6.50;99.90;;;;;;4970045;28;20083;-73
2023/03/27 10:01:47;;;;;;;6.82;1.70;;;6.90;99.90;;;;;;4962155;28;20038;-73
2023/03/27 10:04:21;;;;;;;5.22;0.80;;;6.90;99.90;;;;;;4962951;28;20071;-73
2023/03/27 10:06:58;;;;;;;6.85;1.75;;;6.70;99.90;;;;;;4943049;28;20058;-74
2023/03/27 10:09:37;;;;;;;11.27;1.70;;;6.80;99.90;;;;;;4983764;28;20034;-73
2023/03/27 10:12:08;;;;;;;7.80;1.42;;;7.00;99.90;;;;;;4960575;28;20479;-74
2023/03/27 10:14:43;;;;;;;5.28;1.15;;;7.00;99.90;;;;;;4987606;28;20034;-73
2023/03/27 10:17:36;;;;;;;6.32;1.35;;;7.30;99.90;;;;;;4982577;28;20491;-76
2023/03/27 10:20:17;;;;;;;5.50;1.10;;;7.20;99.90;;;;;;4964036;28;20046;-73
2023/03/27 10:23:07;;;;;;;9.43;1.30;;;7.30;99.90;;;;;;4982763;28;20045;-73
2023/03/27 10:25:38;;;;;;;7.80;1.80;;;7.20;99.90;;;;;;4982674;28;20464;-74
2023/03/27 10:28:17;;;;;;;5.70;1.85;;;7.10;99.90;;;;;;4980755;28;20046;-74
2023/03/27 10:31:25;;;;;;;4.05;1.15;;;7.50;99.90;;;;;;4998287;28;20038;-73
2023/03/27 10:34:04;;;;;;;6.25;1.52;;;8.40;99.90;;;;;;5002671;28;20045;-74
2023/03/27 10:37:19;;;;;;;4.57;1.60;;;8.20;99.90;;;;;;4992645;28;20049;-74
2023/03/27 10:39:52;;;;;;;10.85;1.48;;;8.40;99.90;;;;;;5002805;28;20048;-74
2023/03/27 10:42:35;;;;;;;6.45;1.00;;;8.80;99.90;;;;;;5004319;28;20476;-71
2023/03/27 10:45:02;;;;;;;3.63;1.67;;;8.90;99.90;;;;;;5003175;28;20050;-72
2023/03/27 10:47:35;;;;;;;2.88;0.80;;;8.90;99.90;;;;;;5000466;28;20472;-72
2023/03/27 10:50:10;;;;;;;3.92;0.80;;;8.60;99.90;;;;;;5004699;28;20038;-72
2023/03/27 10:53:20;;;;;;;5.28;1.63;;;8.40;99.90;;;;;;5001955;28;20049;-72
2023/03/27 10:56:21;;;;;;;7.00;0.93;;;8.20;99.90;;;;;;5010307;28;20053;-73
2023/03/27 10:59:04;;;;;;;5.40;1.15;;;8.10;99.90;;;;;;5003818;28;20044;-73
2023/03/27 11:01:39;;;;;;;3.95;0.98;;;7.70;99.90;;;;;;4991210;28;20796;-73
2023/03/27 11:04:22;;;;;;;3.10;0.77;;;7.60;99.90;;;;;;5005469;28;20376;-73
2023/03/27 11:06:58;;;;;;;1.90;0.70;;;7.30;99.90;;;;;;5024644;28;20353;-76
2023/03/27 11:09:38;;;;;;;12.50;1.52;;;7.20;99.90;;;;;;5005394;28;20045;-74
2023/03/27 11:12:18;;;;;;;2.95;1.13;;;6.80;99.90;;;;;;4993136;28;20407;-73
2023/03/27 11:15:08;;;;;;;2.35;0.75;;;6.00;99.90;;;;;;5000567;28;20049;-74
2023/03/27 11:18:10;;;;;;;4.32;1.10;;;5.10;99.90;;;;;;5003838;28;20038;-73
2023/03/27 11:20:55;;;;;;;3.80;1.23;;;5.10;99.90;;;;;;4995842;28;20479;-74
2023/03/27 11:23:37;;;;;;;6.18;1.95;;;5.30;99.90;;;;;;4997944;28;20446;-73
2023/03/27 11:26:17;;;;;;;3.05;1.02;;;5.70;99.90;;;;;;5001371;28;20482;-77
2023/03/27 11:29:09;;;;;;;2.08;1.05;;;5.80;99.90;;;;;;5014739;28;20408;-73
2023/03/27 11:31:54;;;;;;;2.60;0.50;;;6.10;99.90;;;;;;5018903;28;20042;-73
2023/03/27 11:34:58;;;;;;;3.00;0.70;;;6.40;99.90;;;;;;4994940;28;20065;-74
2023/03/27 11:38:11;;;;;;;3.03;0.88;;;6.40;99.90;;;;;;4973974;28;20050;-74
2023/03/27 11:40:46;;;;;;;1.15;0.55;;;6.60;99.90;;;;;;5004445;28;20390;-73
2023/03/27 11:43:15;;;;;;;2.13;0.88;;;7.00;99.90;;;;;;5004417;28;20034;-73
2023/03/27 11:45:53;;;;;;;2.03;0.60;;;7.10;99.90;;;;;;5002121;28;20057;-73
2023/03/27 11:48:39;;;;;;;1.40;0.98;;;7.00;99.90;;;;;;4998449;28;20057;-73
2023/03/27 11:51:30;;;;;;;2.00;0.93;;;7.30;99.90;;;;;;5007836;28;20053;-73
2023/03/27 11:54:13;;;;;;;5.13;1.10;;;7.40;99.90;;;;;;5002846;28;20046;-74
2023/03/27 11:56:54;;;;;;;4.88;1.00;;;7.50;99.90;;;;;;5015847;28;20050;-72
2023/03/27 12:00:04;;;;;;;3.53;1.02;;;7.90;99.90;;;;;;5004710;28;20048;-72
2023/03/27 12:02:53;;;;;;;5.22;1.20;;;8.00;99.90;;;;;;5005096;28;20057;-72
2023/03/27 12:06:00;;;;;;;4.07;1.63;;;8.10;99.90;;;;;;5002520;28;20061;-72
2023/03/27 12:08:42;;;;;;;6.55;3.00;;;8.20;99.90;;;;;;5020286;28;20045;-71
2023/03/27 12:11:11;;;;;;;3.17;1.65;;;8.00;99.90;;;;;;5003419;28;20069;-72
2023/03/27 12:13:43;;;;;;;3.53;1.38;;;7.60;99.90;;;;;;5009370;28;20393;-73
2023/03/27 12:16:45;;;;;;;2.57;1.50;;;7.70;99.90;;;;;;5004905;28;20049;-73
2023/03/27 12:19:37;;;;;;;2.83;1.80;;;8.10;99.90;;;;;;4998561;28;20042;-73
2023/03/27 12:22:51;;;;;;;3.45;1.45;;;8.50;99.90;;;;;;5002657;28;20049;-72
2023/03/27 12:25:56;;;;;;;2.63;1.55;;;8.60;99.90;;;;;;4996419;28;20065;-72
2023/03/27 12:28:48;;;;;;;4.88;1.35;;;8.60;99.90;;;;;;5002291;28;20042;-73
2023/03/27 12:32:00;;;;;;;2.63;1.25;;;8.80;99.90;;;;;;4998831;28;20045;-73
2023/03/27 12:34:39;;;;;;;3.97;1.50;;;9.30;99.90;;;;;;4988650;28;20050;-72
2023/03/27 12:37:11;;;;;;;2.28;1.00;;;9.40;99.90;;;;;;5000715;28;20042;-72
2023/03/27 12:39:49;;;;;;;2.45;0.40;;;9.00;99.90;;;;;;5004521;28;20068;-72
2023/03/27 12:42:42;;;;;;;1.00;0.40;;;8.00;99.90;;;;;;4991368;28;20075;-73
2023/03/27 12:45:26;;;;;;;0.60;0.40;;;7.70;99.90;;;;;;4996032;28;20368;-73
2023/03/27 12:48:08;;;;;;;0.60;0.38;;;7.30;99.90;;;;;;4995453;28;20050;-72
2023/03/27 12:50:47;;;;;;;0.57;0.30;;;7.20;99.90;;;;;;5003655;28;20054;-72
2023/03/27 12:53:40;;;;;;;0.85;0.52;;;7.00;99.90;;;;;;5008861;28;20050;-72
2023/03/27 12:56:11;;;;;;;2.03;0.82;;;7.10;99.90;;;;;;4997591;28;20042;-78
2023/03/27 12:58:38;;;;;;;3.45;1.38;;;7.30;99.90;;;;;;4982643;28;20050;-73
2023/03/27 13:01:43;;;;;;;0.52;0.30;;;7.60;99.90;;;;;;5000213;28;20114;-74
2023/03/27 13:04:18;;;;;;;1.48;0.60;;;7.70;99.90;;;;;;4991844;28;20045;-72
2023/03/27 13:07:18;;;;;;;0.73;0.40;;;7.60;99.90;;;;;;4983929;28;20053;-72
2023/03/27 13:10:38;;;;;;;1.40;0.40;;;7.80;99.90;;;;;;4995974;28;20043;-73
2023/03/27 13:13:26;;;;;;;1.20;0.40;;;8.10;99.90;;;;;;5004569;28;20050;-73
2023/03/27 13:16:25;;;;;;;1.63;0.93;;;8.30;99.90;;;;;;4998904;28;20497;-72
2023/03/27 13:19:20;;;;;;;3.55;1.88;;;8.30;99.90;;;;;;4982728;28;20038;-73
2023/03/27 13:22:18;;;;;;;1.63;0.70;;;8.30;99.90;;;;;;4975121;28;20043;-73
2023/03/27 13:25:06;;;;;;;3.67;1.65;;;8.70;99.90;;;;;;4996288;28;20042;-74
2023/03/27 13:28:03;;;;;;;4.68;1.33;;;9.00;99.90;;;;;;4989580;28;20039;-72
2023/03/27 13:30:58;;;;;;;3.92;1.40;;;9.50;99.90;;;;;;4998328;28;20031;-72
2023/03/27 13:34:29;;;;;;;2.15;0.85;;;9.00;99.90;;;;;;5002380;28;20057;-74
2023/03/27 13:37:24;;;;;;;3.30;1.88;;;8.20;99.90;;;;;;5005395;28;20464;-73
2023/03/27 13:39:54;;;;;;;3.10;1.20;;;7.60;99.90;;;;;;4960725;28;20069;-73
2023/03/27 13:42:24;;;;;;;2.28;0.77;;;7.10;99.90;;;;;;4983041;28;20057;-75
2023/03/27 13:44:56;;;;;;;7.43;2.38;;;6.90;99.90;;;;;;4996993;28;20414;-75
2023/03/27 13:47:33;;;;;;;1.90;1.02;;;6.60;99.90;;;;;;4998030;28;20037;-73
2023/03/27 13:50:14;;;;;;;3.88;1.50;;;6.10;99.90;;;;;;4988953;28;20049;-75
2023/03/27 13:52:55;;;;;;;;;;;5.90;1.00;;;;;;4990757;28;20267;-73
2023/03/27 13:55:52;;;;;;;4.55;1.35;;;5.20;1.00;;;;;;5004934;28;19920;-72